Time;durP1;ratioP1;P1;durP2;ratioP2;P2;SDS_P1;SDS_P2;PMS_P1;PMS_P2;Temp;Humidity;BMP_temperature;BMP_pressure;BME280_temperature;BME280_humidity;BME280_pressure;Samples;Min_cycle;Max_cycle;Signal;HPM_P1;HPM_P2
2023/01/24 00:02:03;;;;;;;22.77;21.17;;;6.80;31.70;;;;;;5012514;28;20230;-77
2023/01/24 00:04:28;;;;;;;22.33;20.63;;;6.90;31.60;;;;;;5011651;28;20221;-77
2023/01/24 00:06:54;;;;;;;22.67;21.00;;;6.90;31.50;;;;;;5009944;28;20223;-76
2023/01/24 00:09:19;;;;;;;22.60;21.00;;;6.90;31.30;;;;;;4994650;28;20209;-76
2023/01/24 00:11:45;;;;;;;22.33;20.73;;;6.90;31.10;;;;;;5012438;28;20239;-76
2023/01/24 00:14:11;;;;;;;22.50;20.80;;;6.90;31.40;;;;;;5013371;28;20188;-77
2023/01/24 00:16:36;;;;;;;21.13;19.63;;;7.00;31.50;;;;;;5012162;28;20193;-76
2023/01/24 00:19:02;;;;;;;21.50;19.97;;;7.00;31.30;;;;;;5011633;28;20187;-77
2023/01/24 00:21:27;;;;;;;21.93;20.37;;;7.00;31.20;;;;;;5009905;28;20185;-77
2023/01/24 00:23:54;;;;;;;21.87;20.37;;;7.00;30.90;;;;;;5011588;28;20264;-77
2023/01/24 00:26:22;;;;;;;21.93;20.33;;;7.00;31.00;;;;;;5011062;28;20217;-77
2023/01/24 00:28:49;;;;;;;20.30;18.80;;;6.90;31.00;;;;;;5010703;28;20451;-77
2023/01/24 00:31:15;;;;;;;21.70;20.00;;;7.00;30.90;;;;;;5011615;28;20933;-77
2023/01/24 00:33:40;;;;;;;20.93;19.43;;;7.00;31.10;;;;;;5010926;28;20486;-77
2023/01/24 00:36:06;;;;;;;20.80;19.30;;;7.00;30.80;;;;;;5010014;28;20449;-77
2023/01/24 00:38:32;;;;;;;21.53;19.93;;;7.00;30.60;;;;;;5011155;28;20216;-76
2023/01/24 00:40:58;;;;;;;22.03;20.43;;;7.00;30.70;;;;;;5011119;28;20488;-77
2023/01/24 00:43:26;;;;;;;21.70;20.20;;;7.00;30.90;;;;;;5010890;28;20217;-76
2023/01/24 00:45:52;;;;;;;22.37;20.77;;;6.80;31.70;;;;;;5009439;28;20444;-77
2023/01/24 00:48:17;;;;;;;21.30;19.90;;;6.80;31.60;;;;;;4993061;28;21004;-77
2023/01/24 00:50:43;;;;;;;21.90;20.30;;;6.80;31.10;;;;;;5010435;28;20181;-77
2023/01/24 00:53:09;;;;;;;21.33;19.83;;;6.90;31.20;;;;;;5010473;28;20640;-76
2023/01/24 00:55:39;;;;;;;20.97;19.50;;;6.70;31.50;;;;;;5009715;28;20189;-76
2023/01/24 00:58:05;;;;;;;21.33;19.73;;;6.70;31.60;;;;;;5010308;28;20227;-76
2023/01/24 01:00:31;;;;;;;21.23;19.77;;;6.70;31.30;;;;;;5008977;28;20460;-76
2023/01/24 01:02:56;;;;;;;20.47;19.07;;;6.70;31.60;;;;;;5010007;28;20935;-77
2023/01/24 01:05:22;;;;;;;19.60;18.10;;;6.80;31.50;;;;;;5008917;28;20204;-76
2023/01/24 01:07:47;;;;;;;22.13;20.53;;;6.70;31.30;;;;;;5010000;28;20252;-76
2023/01/24 01:10:13;;;;;;;21.00;19.40;;;6.50;32.00;;;;;;5010048;28;20295;-76
2023/01/24 01:12:39;;;;;;;20.57;19.27;;;6.50;32.70;;;;;;5010130;28;20193;-77
2023/01/24 01:15:05;;;;;;;21.20;19.57;;;6.50;32.60;;;;;;5009133;28;20182;-77
2023/01/24 01:17:30;;;;;;;20.57;19.17;;;6.40;32.80;;;;;;4992541;28;20209;-77
2023/01/24 01:19:58;;;;;;;19.20;17.80;;;6.50;32.60;;;;;;5008255;28;20554;-77
2023/01/24 01:22:24;;;;;;;19.60;18.20;;;6.60;32.40;;;;;;5009328;28;20239;-77
2023/01/24 01:24:49;;;;;;;21.17;19.67;;;6.50;32.50;;;;;;5009768;28;20503;-77
2023/01/24 01:27:15;;;;;;;21.27;19.77;;;6.60;32.60;;;;;;5009168;28;20213;-77
2023/01/24 01:29:40;;;;;;;20.77;19.37;;;6.50;32.50;;;;;;5008661;28;20209;-77
2023/01/24 01:32:06;;;;;;;21.60;20.10;;;6.60;32.00;;;;;;5008248;28;20597;-77
2023/01/24 01:34:31;;;;;;;21.53;20.13;;;6.50;32.30;;;;;;4991508;28;20247;-77
2023/01/24 01:36:57;;;;;;;21.43;19.93;;;6.50;32.70;;;;;;5008085;28;20687;-76
2023/01/24 01:39:23;;;;;;;21.50;19.77;;;6.50;32.10;;;;;;5009637;28;20181;-77
2023/01/24 01:41:48;;;;;;;22.23;20.63;;;6.50;32.60;;;;;;5008820;28;21276;-78
2023/01/24 01:44:38;;;;;;;20.90;19.40;;;6.50;33.00;;;;;;5010122;28;20216;-77
2023/01/24 01:47:13;;;;;;;21.00;19.60;;;6.60;32.80;;;;;;5008711;28;20309;-77
2023/01/24 01:49:43;;;;;;;22.87;21.27;;;6.70;32.20;;;;;;5009721;28;20471;-77
2023/01/24 01:52:09;;;;;;;20.57;19.07;;;6.80;32.00;;;;;;5010521;28;20420;-77
2023/01/24 01:54:39;;;;;;;21.90;20.40;;;6.80;31.30;;;;;;5009531;28;20419;-77
2023/01/24 01:57:11;;;;;;;22.23;20.50;;;6.80;32.20;;;;;;5009803;28;20255;-77
2023/01/24 02:00:04;;;;;;;23.10;21.40;;;6.90;31.60;;;;;;5010260;28;20729;-76
2023/01/24 02:02:31;;;;;;;21.77;20.17;;;6.70;32.30;;;;;;4991701;28;20427;-76
2023/01/24 02:05:01;;;;;;;21.27;19.73;;;6.60;32.70;;;;;;5010474;28;20458;-78
2023/01/24 02:07:36;;;;;;;21.87;20.37;;;6.70;32.50;;;;;;5008939;28;20451;-77
2023/01/24 02:10:03;;;;;;;20.43;19.03;;;6.50;32.50;;;;;;5008739;28;20470;-77
2023/01/24 02:12:32;;;;;;;21.20;19.70;;;6.40;33.40;;;;;;5009621;28;20894;-77
2023/01/24 02:17:51;;;;;;;20.40;19.00;;;6.60;33.10;;;;;;5015971;28;20432;-76
2023/01/24 02:20:34;;;;;;;21.93;20.33;;;6.60;32.60;;;;;;5019547;28;20408;-77
2023/01/24 02:23:05;;;;;;;22.20;20.60;;;6.60;32.50;;;;;;5032577;28;20245;-75
2023/01/24 02:25:39;;;;;;;21.63;20.07;;;6.60;32.60;;;;;;5030610;28;20771;-75
2023/01/24 02:28:06;;;;;;;21.13;19.63;;;6.70;32.50;;;;;;5031315;28;20440;-75
2023/01/24 02:30:32;;;;;;;20.17;18.77;;;6.80;31.90;;;;;;5032628;28;20407;-75
2023/01/24 02:32:57;;;;;;;20.60;19.20;;;6.70;32.10;;;;;;5033769;28;20413;-76
2023/01/24 02:35:31;;;;;;;21.80;20.30;;;6.70;32.00;;;;;;5034485;28;20189;-77
2023/01/24 02:38:00;;;;;;;20.87;19.47;;;6.60;32.90;;;;;;5033141;28;20201;-75
2023/01/24 02:40:28;;;;;;;19.60;18.33;;;6.70;32.60;;;;;;5032642;28;20927;-75
2023/01/24 02:42:58;;;;;;;21.27;19.77;;;6.60;33.00;;;;;;5025125;28;20420;-76
2023/01/24 02:45:26;;;;;;;22.70;21.00;;;6.70;32.50;;;;;;5018852;28;20814;-75
2023/01/24 02:47:54;;;;;;;23.40;21.70;;;6.80;32.10;;;;;;5015857;28;20420;-76
2023/01/24 02:50:23;;;;;;;20.37;19.03;;;6.80;31.80;;;;;;5015837;28;20456;-76
2023/01/24 02:55:33;;;;;;;20.90;19.50;;;6.80;31.80;;;;;;5013111;28;20396;-76
2023/01/24 02:58:05;;;;;;;21.00;19.40;;;6.90;32.00;;;;;;5012485;28;20487;-76
2023/01/24 03:00:33;;;;;;;20.47;18.97;;;6.90;31.70;;;;;;5011623;28;20472;-76
2023/01/24 03:02:59;;;;;;;19.73;18.37;;;7.00;31.40;;;;;;5011901;28;20911;-76
2023/01/24 03:05:25;;;;;;;21.23;19.63;;;7.00;31.20;;;;;;5010614;28;20512;-76
2023/01/24 03:07:50;;;;;;;21.27;19.77;;;7.10;31.00;;;;;;4995694;28;20219;-77
2023/01/24 03:10:18;;;;;;;20.87;19.47;;;7.10;30.80;;;;;;5011868;28;20703;-77
2023/01/24 03:34:51;;;;;;;21.63;20.03;;;7.00;31.70;;;;;;5010902;28;20500;-76
2023/01/24 03:39:53;;;;;;;23.93;22.03;;;7.10;30.80;;;;;;5010911;28;20799;-76
2023/01/24 03:40:08;;;;;;;21.53;20.03;;;7.00;30.90;;;;;;5010116;28;20412;-77
2023/01/24 03:42:34;;;;;;;21.70;20.20;;;7.00;30.90;;;;;;5010243;28;20420;-75
2023/01/24 03:45:00;;;;;;;21.37;19.77;;;7.00;31.00;;;;;;5011467;28;20894;-77
2023/01/24 03:47:25;;;;;;;21.37;19.87;;;6.90;30.90;;;;;;5010613;28;20436;-77
2023/01/24 03:52:35;;;;;;;21.60;20.10;;;6.90;31.40;;;;;;5010607;28;20168;-76
2023/01/24 03:55:01;;;;;;;22.47;20.87;;;6.80;31.40;;;;;;5011259;28;20412;-77
2023/01/24 03:57:28;;;;;;;21.80;20.30;;;6.60;32.60;;;;;;5009633;28;20204;-77
2023/01/24 03:59:53;;;;;;;23.40;21.70;;;6.60;32.60;;;;;;5010914;28;20416;-77
2023/01/24 04:02:19;;;;;;;23.47;21.63;;;6.50;33.10;;;;;;5010691;28;20984;-77
2023/01/24 04:07:30;;;;;;;23.47;21.87;;;6.60;32.40;;;;;;5010146;28;20439;-76
2023/01/24 04:09:57;;;;;;;24.43;22.73;;;6.70;32.40;;;;;;5009274;28;20495;-76
2023/01/24 04:12:23;;;;;;;22.57;20.90;;;6.70;32.40;;;;;;5009176;28;20424;-75
2023/01/24 04:14:49;;;;;;;25.13;23.23;;;6.70;32.00;;;;;;5010443;28;20401;-76
2023/01/24 04:17:14;;;;;;;23.97;22.17;;;6.70;32.20;;;;;;4993855;28;20205;-77
2023/01/24 04:19:40;;;;;;;24.80;23.00;;;6.70;32.20;;;;;;5010443;28;20189;-76
2023/01/24 04:22:05;;;;;;;22.57;20.87;;;6.70;31.80;;;;;;5010283;28;20189;-76
2023/01/24 04:24:31;;;;;;;24.83;22.93;;;6.70;32.40;;;;;;5009391;28;20189;-77
2023/01/24 04:26:56;;;;;;;22.63;21.03;;;6.70;32.10;;;;;;5010127;28;20216;-77
2023/01/24 04:29:22;;;;;;;23.50;21.60;;;6.70;32.20;;;;;;5010439;28;20205;-77
2023/01/24 04:31:47;;;;;;;24.80;22.90;;;6.80;32.00;;;;;;5009591;28;20277;-77
2023/01/24 04:34:13;;;;;;;23.30;21.60;;;6.80;32.00;;;;;;5008783;28;20256;-76
2023/01/24 04:36:38;;;;;;;23.23;21.57;;;6.80;32.30;;;;;;5008239;28;20208;-76
2023/01/24 04:39:04;;;;;;;23.17;21.40;;;6.90;32.20;;;;;;5011178;28;20183;-75
2023/01/24 04:41:29;;;;;;;22.70;21.00;;;6.90;31.60;;;;;;5016023;28;20208;-76
2023/01/24 04:43:55;;;;;;;24.43;22.53;;;7.00;31.40;;;;;;5013796;28;20185;-76
2023/01/24 04:46:20;;;;;;;22.67;21.00;;;7.10;31.00;;;;;;5012434;28;20201;-77
2023/01/24 04:48:46;;;;;;;22.47;20.87;;;7.10;31.40;;;;;;5008968;28;20217;-77
2023/01/24 04:51:12;;;;;;;22.13;20.63;;;7.20;30.40;;;;;;5010230;28;20209;-77
2023/01/24 04:53:39;;;;;;;22.47;20.87;;;7.30;30.20;;;;;;5010017;28;20316;-77
2023/01/24 04:56:05;;;;;;;21.90;20.40;;;7.40;30.30;;;;;;4992611;28;20205;-77
2023/01/24 04:58:31;;;;;;;23.13;21.30;;;7.40;30.30;;;;;;5009250;28;20526;-77
2023/01/24 05:00:57;;;;;;;21.70;20.03;;;7.40;30.30;;;;;;5011915;28;21520;-77
2023/01/24 05:03:23;;;;;;;23.93;22.13;;;7.50;30.00;;;;;;5014334;28;20441;-77
2023/01/24 05:05:49;;;;;;;23.63;21.97;;;7.60;29.80;;;;;;5009428;28;20244;-77
2023/01/24 05:08:15;;;;;;;22.67;21.00;;;7.50;30.00;;;;;;5011447;28;20180;-77
2023/01/24 05:10:40;;;;;;;22.90;21.30;;;7.50;29.90;;;;;;5017671;28;20404;-77
2023/01/24 05:13:06;;;;;;;23.60;21.83;;;7.60;29.80;;;;;;5016811;28;20225;-77
2023/01/24 05:15:31;;;;;;;22.57;20.83;;;7.60;29.70;;;;;;5016730;28;20178;-77
2023/01/24 05:17:57;;;;;;;22.43;20.77;;;7.60;29.90;;;;;;5015901;28;20189;-77
2023/01/24 05:20:22;;;;;;;22.43;20.90;;;7.70;29.50;;;;;;5015727;28;20235;-77
2023/01/24 05:22:49;;;;;;;23.00;21.40;;;7.70;29.60;;;;;;5014870;28;20197;-76
2023/01/24 05:25:18;;;;;;;24.53;22.70;;;7.70;29.40;;;;;;5017435;28;20173;-77
2023/01/24 05:27:44;;;;;;;24.90;22.90;;;7.80;29.30;;;;;;5019221;28;20523;-76
2023/01/24 05:30:10;;;;;;;24.30;22.50;;;7.60;29.00;;;;;;5026826;28;20456;-75
2023/01/24 05:32:36;;;;;;;24.40;22.60;;;7.50;30.00;;;;;;5028605;28;20471;-76
2023/01/24 05:35:02;;;;;;;23.37;21.60;;;7.60;29.70;;;;;;5029910;28;20440;-76
2023/01/24 05:37:27;;;;;;;22.63;21.00;;;7.60;29.90;;;;;;5029640;28;20829;-75
2023/01/24 05:39:53;;;;;;;23.17;21.47;;;7.50;29.80;;;;;;5029701;28;20420;-76
2023/01/24 05:42:18;;;;;;;24.17;22.40;;;7.50;29.70;;;;;;5023208;28;20190;-77
2023/01/24 05:44:44;;;;;;;24.73;22.83;;;7.50;29.90;;;;;;5015592;28;20189;-76
2023/01/24 05:47:09;;;;;;;22.87;21.07;;;7.50;29.90;;;;;;5013682;28;20874;-76
2023/01/24 05:49:35;;;;;;;25.03;23.03;;;7.50;30.00;;;;;;5010037;28;20643;-76
2023/01/24 05:52:01;;;;;;;23.03;21.33;;;7.50;30.40;;;;;;5010053;28;20556;-76
2023/01/24 05:54:26;;;;;;;23.70;22.10;;;7.30;30.30;;;;;;5015267;28;20239;-77
2023/01/24 05:56:52;;;;;;;24.43;22.53;;;7.30;30.20;;;;;;5011762;28;20204;-77
2023/01/24 05:59:18;;;;;;;24.10;22.30;;;7.30;30.50;;;;;;5011682;28;20177;-77
2023/01/24 06:01:44;;;;;;;24.17;22.27;;;7.00;31.00;;;;;;5010684;28;20434;-77
2023/01/24 06:04:09;;;;;;;24.10;22.10;;;6.90;32.50;;;;;;5012529;28;20560;-77
2023/01/24 06:06:35;;;;;;;24.90;22.90;;;7.00;32.60;;;;;;5014341;28;20212;-76
2023/01/24 06:09:00;;;;;;;25.33;23.30;;;7.00;32.00;;;;;;5014688;28;20640;-77
2023/01/24 06:11:27;;;;;;;24.80;23.00;;;7.00;31.60;;;;;;5015569;28;20219;-76
2023/01/24 06:13:54;;;;;;;25.50;23.50;;;7.10;31.50;;;;;;5011105;28;20181;-76
2023/01/24 06:16:22;;;;;;;24.97;23.07;;;7.10;31.40;;;;;;4997237;28;20957;-76
2023/01/24 06:18:49;;;;;;;24.50;22.70;;;7.20;31.10;;;;;;5015097;28;20427;-77
2023/01/24 06:21:37;;;;;;;25.23;23.30;;;7.20;30.90;;;;;;5015136;28;20482;-77
2023/01/24 06:24:04;;;;;;;26.10;23.90;;;7.20;30.80;;;;;;5013993;28;20451;-77
2023/01/24 06:26:31;;;;;;;24.83;23.03;;;7.20;30.90;;;;;;5015360;28;20467;-77
2023/01/24 06:28:57;;;;;;;25.47;23.57;;;7.20;31.10;;;;;;5014188;28;20464;-77
2023/01/24 06:31:39;;;;;;;26.20;24.30;;;7.20;31.00;;;;;;5014446;28;20428;-76
2023/01/24 06:34:22;;;;;;;23.13;21.43;;;7.10;31.20;;;;;;5015576;28;20686;-76
2023/01/24 06:37:04;;;;;;;25.23;23.30;;;7.10;31.10;;;;;;5014421;28;20913;-76
2023/01/24 06:39:30;;;;;;;27.27;25.17;;;7.20;31.10;;;;;;4995653;28;20400;-76
2023/01/24 06:41:56;;;;;;;26.67;24.57;;;7.00;31.40;;;;;;4995677;28;20440;-76
2023/01/24 06:44:22;;;;;;;27.30;25.27;;;7.00;31.40;;;;;;4995848;28;20649;-76
2023/01/24 06:46:48;;;;;;;26.37;24.40;;;7.10;31.50;;;;;;5009391;28;20498;-76
2023/01/24 06:49:14;;;;;;;25.93;23.90;;;7.00;31.40;;;;;;5014229;28;20962;-76
2023/01/24 06:51:39;;;;;;;25.10;23.20;;;7.00;31.60;;;;;;5013729;28;20626;-76
2023/01/24 06:54:05;;;;;;;25.00;23.20;;;7.00;31.90;;;;;;5012426;28;20421;-77
2023/01/24 06:56:31;;;;;;;27.00;24.60;;;7.00;31.70;;;;;;5014212;28;20209;-77
2023/01/24 06:58:57;;;;;;;26.47;24.50;;;7.10;31.50;;;;;;5014940;28;20193;-77
2023/01/24 07:01:22;;;;;;;25.70;23.70;;;7.10;31.40;;;;;;5014774;28;20423;-76
2023/01/24 07:03:48;;;;;;;26.20;24.20;;;7.20;31.40;;;;;;5014501;28;20927;-77
2023/01/24 07:06:15;;;;;;;25.73;23.63;;;7.20;31.10;;;;;;5015305;28;20208;-76
2023/01/24 07:08:40;;;;;;;27.83;25.60;;;7.30;30.50;;;;;;5015262;28;20207;-77
2023/01/24 07:11:06;;;;;;;25.90;23.97;;;7.30;30.20;;;;;;5015146;28;20412;-77
2023/01/24 07:13:31;;;;;;;27.87;25.87;;;7.20;31.20;;;;;;5014411;28;20280;-75
2023/01/24 07:16:01;;;;;;;26.43;24.43;;;7.20;30.90;;;;;;5014967;28;20229;-76
2023/01/24 07:18:27;;;;;;;27.70;25.40;;;7.20;30.90;;;;;;5014708;28;20262;-77
2023/01/24 07:20:53;;;;;;;26.57;24.50;;;7.30;30.30;;;;;;5012737;28;20424;-76
2023/01/24 07:23:31;;;;;;;25.60;23.60;;;7.30;30.20;;;;;;5014981;28;20423;-77
2023/01/24 07:25:56;;;;;;;26.20;24.27;;;7.30;30.80;;;;;;5020398;28;20246;-75
2023/01/24 07:28:22;;;;;;;27.30;25.20;;;7.30;30.30;;;;;;5026949;28;20424;-77
2023/01/24 07:30:48;;;;;;;25.93;24.00;;;7.30;30.60;;;;;;5001364;28;20190;-76
2023/01/24 07:33:15;;;;;;;25.63;23.37;;;7.30;30.20;;;;;;5016161;28;20664;-76
2023/01/24 07:35:41;;;;;;;25.30;23.50;;;7.30;30.30;;;;;;5014099;28;20580;-75
2023/01/24 07:38:07;;;;;;;25.17;23.27;;;7.20;30.10;;;;;;5015089;28;20416;-76
2023/01/24 07:40:32;;;;;;;24.57;22.73;;;7.20;30.50;;;;;;5016783;28;20415;-77
2023/01/24 07:43:02;;;;;;;26.93;24.77;;;7.20;30.50;;;;;;5024485;28;20310;-77
2023/01/24 07:45:28;;;;;;;24.37;22.47;;;7.20;30.50;;;;;;5024004;28;20205;-77
2023/01/24 07:47:58;;;;;;;25.63;23.53;;;7.20;30.80;;;;;;5017993;28;20427;-77
2023/01/24 07:50:25;;;;;;;24.17;22.40;;;7.20;30.90;;;;;;5003255;28;20790;-77
2023/01/24 07:52:54;;;;;;;26.47;24.20;;;7.30;30.90;;;;;;5011985;28;20880;-77
2023/01/24 07:55:21;;;;;;;23.70;22.00;;;7.30;30.90;;;;;;5014532;28;20829;-75
2023/01/24 07:57:46;;;;;;;23.20;21.40;;;7.30;30.60;;;;;;5014710;28;20920;-77
2023/01/24 08:00:13;;;;;;;24.03;22.30;;;7.30;30.30;;;;;;5013061;28;20428;-76
2023/01/24 08:02:39;;;;;;;24.20;22.30;;;7.30;31.00;;;;;;5021842;28;20194;-75
2023/01/24 08:05:06;;;;;;;25.57;23.77;;;7.20;30.10;;;;;;5022913;28;20514;-76
2023/01/24 08:07:31;;;;;;;23.90;22.10;;;7.20;30.10;;;;;;5021046;28;20521;-75
2023/01/24 08:09:57;;;;;;;26.00;24.10;;;7.10;30.40;;;;;;5013739;28;20558;-75
2023/01/24 08:12:23;;;;;;;23.90;21.80;;;7.00;31.20;;;;;;5013795;28;20670;-75
2023/01/24 08:14:48;;;;;;;23.97;22.20;;;7.00;31.40;;;;;;5014859;28;20189;-76
2023/01/24 08:17:14;;;;;;;24.37;22.53;;;7.00;31.60;;;;;;5013510;28;20205;-76
2023/01/24 08:19:40;;;;;;;25.27;23.37;;;7.00;31.80;;;;;;5014255;28;20514;-75
2023/01/24 08:22:06;;;;;;;27.03;24.73;;;6.90;31.30;;;;;;5012674;28;20434;-75
2023/01/24 08:24:32;;;;;;;24.57;22.70;;;6.80;32.70;;;;;;5013125;28;20189;-76
2023/01/24 08:26:59;;;;;;;24.80;22.90;;;6.80;32.50;;;;;;4996271;28;20538;-75
2023/01/24 08:29:25;;;;;;;26.17;24.27;;;6.80;32.70;;;;;;5012958;28;20459;-76
2023/01/24 08:31:51;;;;;;;26.70;24.70;;;6.90;31.90;;;;;;5013562;28;20981;-75
2023/01/24 08:34:16;;;;;;;26.20;24.23;;;6.90;31.90;;;;;;5013756;28;20224;-75
2023/01/24 08:36:42;;;;;;;25.20;23.17;;;6.90;32.10;;;;;;5013354;28;20435;-74
2023/01/24 08:39:08;;;;;;;25.90;23.80;;;6.90;32.20;;;;;;5013868;28;20182;-73
2023/01/24 08:41:34;;;;;;;24.90;22.97;;;6.90;32.20;;;;;;5013370;28;20194;-75
2023/01/24 08:44:02;;;;;;;24.73;22.83;;;7.00;32.00;;;;;;5015931;28;20208;-75
2023/01/24 08:46:28;;;;;;;24.73;22.83;;;7.10;31.50;;;;;;5015478;28;20810;-75
2023/01/24 08:48:53;;;;;;;24.80;22.77;;;6.90;32.60;;;;;;5028205;28;20467;-77
2023/01/24 08:51:19;;;;;;;24.67;22.97;;;7.00;32.50;;;;;;5029553;28;20439;-76
2023/01/24 08:53:44;;;;;;;25.57;23.67;;;7.10;31.90;;;;;;5026422;28;20215;-75
2023/01/24 08:56:12;;;;;;;24.83;22.83;;;7.20;31.20;;;;;;5017633;28;20706;-76
2023/01/24 08:58:37;;;;;;;25.20;23.10;;;7.30;31.00;;;;;;5014592;28;20201;-75
2023/01/24 09:01:07;;;;;;;25.37;23.27;;;7.30;30.50;;;;;;5027844;28;20446;-75
2023/01/24 09:03:33;;;;;;;25.40;23.50;;;7.10;31.20;;;;;;5002329;28;20558;-75
2023/01/24 09:05:58;;;;;;;26.23;24.20;;;7.20;31.20;;;;;;5007569;28;20452;-76
2023/01/24 09:08:24;;;;;;;25.10;23.10;;;7.30;31.60;;;;;;4989578;28;20196;-77
2023/01/24 09:10:50;;;;;;;22.93;21.17;;;7.30;31.20;;;;;;5005415;28;20193;-76
2023/01/24 09:13:15;;;;;;;24.47;22.67;;;7.40;30.70;;;;;;5011750;28;20181;-76
2023/01/24 09:15:41;;;;;;;24.50;22.50;;;7.50;30.40;;;;;;5010822;28;20644;-75
2023/01/24 09:18:07;;;;;;;24.87;23.00;;;7.50;30.40;;;;;;5010906;28;20224;-76
2023/01/24 09:20:34;;;;;;;24.73;22.53;;;7.50;30.40;;;;;;5012059;28;20421;-77
2023/01/24 09:23:00;;;;;;;24.93;23.13;;;7.50;30.40;;;;;;4992847;28;20507;-77
2023/01/24 09:25:25;;;;;;;24.63;22.57;;;7.40;30.30;;;;;;4993867;28;20491;-77
2023/01/24 09:27:55;;;;;;;24.60;22.70;;;7.40;30.30;;;;;;5013158;28;20482;-77
2023/01/24 09:30:21;;;;;;;25.13;23.03;;;7.30;30.20;;;;;;5013094;28;20680;-80
2023/01/24 09:32:48;;;;;;;25.30;22.83;;;7.30;30.80;;;;;;5011906;28;20424;-78
2023/01/24 09:35:14;;;;;;;23.60;21.80;;;7.20;30.80;;;;;;5014200;28;20412;-75
2023/01/24 09:37:41;;;;;;;25.27;23.27;;;7.10;32.00;;;;;;5012445;28;20467;-76
2023/01/24 09:40:30;;;;;;;24.57;22.80;;;7.20;31.50;;;;;;5011245;28;20197;-76
2023/01/24 09:43:33;;;;;;;24.10;22.30;;;7.20;31.20;;;;;;5012497;28;20412;-77
2023/01/24 09:46:19;;;;;;;24.37;22.57;;;7.30;30.50;;;;;;5013562;28;20466;-76
2023/01/24 09:48:47;;;;;;;23.83;22.00;;;7.30;30.90;;;;;;5014318;28;20523;-76
2023/01/24 09:51:24;;;;;;;24.13;22.43;;;7.30;30.30;;;;;;5011015;28;20420;-77
2023/01/24 09:53:55;;;;;;;24.00;22.10;;;7.30;31.10;;;;;;5013193;28;20478;-77
2023/01/24 09:56:34;;;;;;;24.10;22.10;;;7.30;31.20;;;;;;5016587;28;20463;-78
2023/01/24 09:59:09;;;;;;;24.70;22.70;;;7.20;31.80;;;;;;5017670;28;20523;-78
2023/01/24 10:01:38;;;;;;;23.77;22.03;;;7.20;31.40;;;;;;5018197;28;20500;-77
2023/01/24 10:04:10;;;;;;;23.17;21.27;;;7.20;31.30;;;;;;4998874;28;20461;-77
2023/01/24 10:06:39;;;;;;;21.57;20.10;;;7.20;31.10;;;;;;5012958;28;20440;-76
2023/01/24 10:09:32;;;;;;;22.70;21.10;;;7.20;30.80;;;;;;4995831;28;20533;-77
2023/01/24 10:12:44;;;;;;;23.40;21.70;;;7.20;32.30;;;;;;5013349;28;20446;-77
2023/01/24 10:15:34;;;;;;;22.30;20.53;;;7.10;31.30;;;;;;4966911;28;20408;-78
2023/01/24 10:18:23;;;;;;;22.87;21.17;;;7.10;31.20;;;;;;5014979;28;20472;-78
2023/01/24 10:20:59;;;;;;;22.60;21.13;;;7.20;30.70;;;;;;5003488;28;20600;-78
2023/01/24 10:23:30;;;;;;;21.67;20.07;;;7.20;31.20;;;;;;5018881;28;20412;-78
2023/01/24 10:26:19;;;;;;;21.10;19.60;;;7.20;31.10;;;;;;5019226;28;20420;-78
2023/01/24 10:28:51;;;;;;;21.40;20.00;;;7.30;31.80;;;;;;5019890;28;20518;-79
2023/01/24 10:31:27;;;;;;;19.47;18.17;;;7.40;32.90;;;;;;5016948;28;20534;-78
2023/01/24 10:33:57;;;;;;;20.90;19.00;;;7.40;31.30;;;;;;5002255;28;20416;-79
2023/01/24 10:36:32;;;;;;;20.20;18.80;;;7.50;31.30;;;;;;5021034;28;20429;-78
2023/01/24 10:38:58;;;;;;;22.17;20.63;;;7.50;31.10;;;;;;5019558;28;20430;-77
2023/01/24 10:41:26;;;;;;;20.60;19.20;;;7.50;30.40;;;;;;5016981;28;20439;-77
2023/01/24 10:44:12;;;;;;;22.03;20.53;;;7.50;30.30;;;;;;5013089;28;20184;-77
2023/01/24 10:46:41;;;;;;;21.50;20.00;;;7.50;30.10;;;;;;5011957;28;20554;-77
2023/01/24 10:49:11;;;;;;;21.50;19.97;;;7.50;30.20;;;;;;5014578;28;20475;-78
2023/01/24 10:51:37;;;;;;;20.70;19.30;;;7.50;30.40;;;;;;5015964;28;20468;-77
2023/01/24 10:54:03;;;;;;;21.40;19.80;;;7.50;30.40;;;;;;5004357;28;20848;-77
2023/01/24 10:56:29;;;;;;;20.20;18.90;;;7.50;30.40;;;;;;5020164;28;20260;-78
2023/01/24 10:59:12;;;;;;;22.00;20.50;;;7.40;30.30;;;;;;5003013;28;20178;-77
2023/01/24 11:01:48;;;;;;;20.90;19.50;;;7.50;30.40;;;;;;5023266;28;20420;-78
2023/01/24 11:04:28;;;;;;;20.60;19.17;;;7.50;30.20;;;;;;5012824;28;20425;-77
2023/01/24 11:06:54;;;;;;;21.47;19.97;;;7.50;30.10;;;;;;5019573;28;20427;-77
2023/01/24 11:09:25;;;;;;;22.10;20.60;;;7.40;30.00;;;;;;5019445;28;20503;-78
2023/01/24 11:11:56;;;;;;;23.10;21.27;;;7.30;30.20;;;;;;5018266;28;20261;-77
2023/01/24 11:14:24;;;;;;;22.47;20.87;;;7.30;30.20;;;;;;5034632;28;20875;-78
2023/01/24 11:16:52;;;;;;;22.23;20.77;;;7.40;30.30;;;;;;5001041;28;20535;-77
2023/01/24 11:19:25;;;;;;;22.87;21.20;;;7.40;30.30;;;;;;5000544;28;20414;-78
2023/01/24 11:21:53;;;;;;;23.40;21.60;;;7.40;30.30;;;;;;5003017;28;20409;-78
2023/01/24 11:24:20;;;;;;;22.13;20.57;;;7.50;30.40;;;;;;5005293;28;20472;-77
2023/01/24 11:26:56;;;;;;;23.10;21.23;;;7.50;30.40;;;;;;5007979;28;20451;-78
2023/01/24 11:29:23;;;;;;;21.40;19.90;;;7.50;30.40;;;;;;5007159;28;20559;-76
2023/01/24 11:31:52;;;;;;;22.93;21.13;;;7.50;30.40;;;;;;5003846;28;20420;-77
2023/01/24 11:34:39;;;;;;;22.60;20.80;;;7.60;30.50;;;;;;5017844;28;20432;-77
2023/01/24 11:37:17;;;;;;;23.70;21.90;;;7.50;30.40;;;;;;5002413;28;20821;-77
2023/01/24 11:39:55;;;;;;;23.90;22.20;;;7.40;30.30;;;;;;5005040;28;20409;-77
2023/01/24 11:42:51;;;;;;;22.30;20.70;;;7.30;30.20;;;;;;5011158;28;20418;-77
2023/01/24 11:45:23;;;;;;;21.87;20.37;;;7.20;31.70;;;;;;5028041;28;20541;-77
2023/01/24 11:48:09;;;;;;;21.97;20.47;;;7.20;31.60;;;;;;5010889;28;20804;-77
2023/01/24 11:50:47;;;;;;;21.47;19.97;;;7.30;31.30;;;;;;5002279;28;20457;-77
2023/01/24 11:53:45;;;;;;;20.73;19.37;;;7.30;31.20;;;;;;5022697;28;20417;-78
2023/01/24 11:56:38;;;;;;;21.23;19.83;;;7.40;30.90;;;;;;5004919;28;20472;-77
2023/01/24 11:59:26;;;;;;;21.53;19.93;;;7.40;30.80;;;;;;5020237;28;20421;-78
2023/01/24 12:02:20;;;;;;;21.23;19.93;;;7.40;30.30;;;;;;5004049;28;20417;-78
2023/01/24 12:04:51;;;;;;;20.60;19.10;;;7.40;30.30;;;;;;5005061;28;20445;-78
2023/01/24 12:07:40;;;;;;;21.67;20.10;;;7.40;30.60;;;;;;5003061;28;20985;-78
2023/01/24 12:10:34;;;;;;;19.60;18.30;;;7.40;30.80;;;;;;5019530;28;20469;-79
2023/01/24 12:13:25;;;;;;;20.40;18.87;;;7.40;30.60;;;;;;5002963;28;20405;-78
2023/01/24 12:16:42;;;;;;;20.53;19.23;;;7.40;31.40;;;;;;5002277;28;20429;-78
2023/01/24 12:19:35;;;;;;;20.97;19.47;;;7.40;31.60;;;;;;5000461;28;20405;-77
2023/01/24 12:22:01;;;;;;;19.53;18.23;;;7.40;31.60;;;;;;4999121;28;20417;-78
2023/01/24 12:24:36;;;;;;;19.40;18.20;;;7.50;31.40;;;;;;4999863;28;20421;-78
2023/01/24 12:27:06;;;;;;;20.27;18.87;;;7.50;30.40;;;;;;5021411;28;20886;-76
2023/01/24 12:29:55;;;;;;;22.33;20.63;;;7.50;30.40;;;;;;5034643;28;20472;-78
2023/01/24 12:32:31;;;;;;;21.13;19.80;;;7.60;30.50;;;;;;5012792;28;20419;-77
2023/01/24 12:35:00;;;;;;;20.80;19.17;;;7.70;30.50;;;;;;5035914;28;20461;-78
2023/01/24 12:37:27;;;;;;;20.90;19.50;;;7.60;30.50;;;;;;5035919;28;20423;-78
2023/01/24 12:40:11;;;;;;;19.50;18.13;;;7.50;30.40;;;;;;5018984;28;20420;-77
2023/01/24 12:43:01;;;;;;;19.87;18.67;;;7.40;30.90;;;;;;5018019;28;20547;-78
2023/01/24 12:45:34;;;;;;;19.27;17.97;;;7.40;30.80;;;;;;5014722;28;20434;-78
2023/01/24 12:48:08;;;;;;;19.03;17.70;;;7.40;30.70;;;;;;5014064;28;20433;-75
2023/01/24 12:51:15;;;;;;;19.83;18.43;;;7.30;31.20;;;;;;5015477;28;20464;-77
2023/01/24 12:54:01;;;;;;;19.80;18.60;;;7.40;31.10;;;;;;5015053;28;20412;-78
2023/01/24 12:56:58;;;;;;;18.60;17.30;;;7.50;30.50;;;;;;4998039;28;20452;-77
2023/01/24 12:59:25;;;;;;;19.07;17.97;;;7.50;30.40;;;;;;5015026;28;20412;-77
2023/01/24 13:02:16;;;;;;;18.90;17.60;;;7.50;30.60;;;;;;5015185;28;20419;-77
2023/01/24 13:04:44;;;;;;;18.30;17.10;;;7.50;30.40;;;;;;5018933;28;20416;-73
2023/01/24 13:07:42;;;;;;;20.10;18.70;;;7.50;30.90;;;;;;5023929;28;20448;-77
2023/01/24 13:10:33;;;;;;;20.57;18.97;;;7.50;30.40;;;;;;5015637;28;20867;-77
2023/01/24 13:12:59;;;;;;;19.37;17.97;;;7.40;30.30;;;;;;5016833;28;20404;-76
2023/01/24 13:15:37;;;;;;;18.53;17.33;;;7.40;30.50;;;;;;5015465;28;20520;-78
2023/01/24 13:18:41;;;;;;;18.07;16.97;;;7.40;30.40;;;;;;5019961;28;20510;-78
2023/01/24 13:21:23;;;;;;;17.97;16.90;;;7.40;30.90;;;;;;5021012;28;20434;-78
2023/01/24 13:24:17;;;;;;;17.60;16.40;;;7.40;31.10;;;;;;5020881;28;20488;-78
2023/01/24 13:27:13;;;;;;;19.20;17.97;;;7.40;30.70;;;;;;5014923;28;20468;-79